sensor_id;sensor_type;location;lat;lon;timestamp;temperature;humidity
17307;DHT22;8771;48.048;7.682;2023-03-13T00:02:06;12.60;67.00
17307;DHT22;8771;48.048;7.682;2023-03-13T00:07:09;12.60;66.90
17307;DHT22;8771;48.048;7.682;2023-03-13T00:12:13;12.60;66.90
17307;DHT22;8771;48.048;7.682;2023-03-13T00:17:16;12.70;67.00
17307;DHT22;8771;48.048;7.682;2023-03-13T00:22:19;12.70;67.00
17307;DHT22;8771;48.048;7.682;2023-03-13T00:27:26;12.70;66.90
17307;DHT22;8771;48.048;7.682;2023-03-13T00:32:29;12.70;67.00
17307;DHT22;8771;48.048;7.682;2023-03-13T00:37:32;12.70;67.00
17307;DHT22;8771;48.048;7.682;2023-03-13T00:42:36;12.80;67.00
17307;DHT22;8771;48.048;7.682;2023-03-13T00:47:39;12.80;67.00
17307;DHT22;8771;48.048;7.682;2023-03-13T00:52:42;12.80;67.00
17307;DHT22;8771;48.048;7.682;2023-03-13T00:57:46;12.90;67.00
17307;DHT22;8771;48.048;7.682;2023-03-13T01:02:49;12.90;66.90
17307;DHT22;8771;48.048;7.682;2023-03-13T01:07:52;12.90;66.80
17307;DHT22;8771;48.048;7.682;2023-03-13T01:12:57;13.00;66.80
17307;DHT22;8771;48.048;7.682;2023-03-13T01:18:00;13.00;66.80
17307;DHT22;8771;48.048;7.682;2023-03-13T01:23:02;13.10;66.80
17307;DHT22;8771;48.048;7.682;2023-03-13T01:28:07;13.00;66.80
17307;DHT22;8771;48.048;7.682;2023-03-13T01:33:10;13.00;67.00
17307;DHT22;8771;48.048;7.682;2023-03-13T01:38:12;13.00;67.00
17307;DHT22;8771;48.048;7.682;2023-03-13T01:43:21;13.00;67.10
17307;DHT22;8771;48.048;7.682;2023-03-13T01:48:32;12.90;67.20
17307;DHT22;8771;48.048;7.682;2023-03-13T01:53:40;12.90;67.30
17307;DHT22;8771;48.048;7.682;2023-03-13T01:58:47;12.90;67.30
17307;DHT22;8771;48.048;7.682;2023-03-13T02:03:51;12.90;67.30
17307;DHT22;8771;48.048;7.682;2023-03-13T02:08:57;12.90;67.40
17307;DHT22;8771;48.048;7.682;2023-03-13T02:14:06;12.80;67.40
17307;DHT22;8771;48.048;7.682;2023-03-13T02:19:16;12.80;67.40
17307;DHT22;8771;48.048;7.682;2023-03-13T02:24:26;12.90;67.50
17307;DHT22;8771;48.048;7.682;2023-03-13T02:29:32;12.80;68.20
17307;DHT22;8771;48.048;7.682;2023-03-13T02:34:37;12.80;67.50
17307;DHT22;8771;48.048;7.682;2023-03-13T02:39:42;12.80;67.60
17307;DHT22;8771;48.048;7.682;2023-03-13T02:44:47;12.80;67.50
17307;DHT22;8771;48.048;7.682;2023-03-13T02:49:51;12.70;67.40
17307;DHT22;8771;48.048;7.682;2023-03-13T02:54:57;12.70;67.50
17307;DHT22;8771;48.048;7.682;2023-03-13T03:00:02;12.70;67.60
17307;DHT22;8771;48.048;7.682;2023-03-13T03:05:08;12.70;67.60
17307;DHT22;8771;48.048;7.682;2023-03-13T03:10:11;12.70;67.70
17307;DHT22;8771;48.048;7.682;2023-03-13T03:15:18;12.70;67.70
17307;DHT22;8771;48.048;7.682;2023-03-13T03:20:23;12.70;67.70
17307;DHT22;8771;48.048;7.682;2023-03-13T03:25:26;12.70;67.70
17307;DHT22;8771;48.048;7.682;2023-03-13T03:30:30;12.70;67.70
17307;DHT22;8771;48.048;7.682;2023-03-13T03:35:33;12.70;67.80
17307;DHT22;8771;48.048;7.682;2023-03-13T03:40:39;12.70;67.90
17307;DHT22;8771;48.048;7.682;2023-03-13T03:45:43;12.60;67.90
17307;DHT22;8771;48.048;7.682;2023-03-13T03:50:46;12.60;68.00
17307;DHT22;8771;48.048;7.682;2023-03-13T03:55:48;12.60;68.00
17307;DHT22;8771;48.048;7.682;2023-03-13T04:00:51;12.60;68.10
17307;DHT22;8771;48.048;7.682;2023-03-13T04:05:54;12.60;68.10
17307;DHT22;8771;48.048;7.682;2023-03-13T04:10:59;12.50;68.10
17307;DHT22;8771;48.048;7.682;2023-03-13T04:16:07;12.50;68.30
17307;DHT22;8771;48.048;7.682;2023-03-13T04:21:10;12.50;68.30
17307;DHT22;8771;48.048;7.682;2023-03-13T04:26:12;12.50;68.40
17307;DHT22;8771;48.048;7.682;2023-03-13T04:31:15;12.40;68.40
17307;DHT22;8771;48.048;7.682;2023-03-13T04:36:17;12.50;68.60
17307;DHT22;8771;48.048;7.682;2023-03-13T04:41:19;12.40;68.60
17307;DHT22;8771;48.048;7.682;2023-03-13T04:46:22;12.40;68.60
17307;DHT22;8771;48.048;7.682;2023-03-13T04:51:25;12.40;68.70
17307;DHT22;8771;48.048;7.682;2023-03-13T04:56:27;12.40;68.70
17307;DHT22;8771;48.048;7.682;2023-03-13T05:01:31;12.40;68.70
17307;DHT22;8771;48.048;7.682;2023-03-13T05:06:33;12.40;68.70
17307;DHT22;8771;48.048;7.682;2023-03-13T05:11:36;12.30;68.70
17307;DHT22;8771;48.048;7.682;2023-03-13T05:16:42;12.30;68.80
17307;DHT22;8771;48.048;7.682;2023-03-13T05:21:44;12.30;68.90
17307;DHT22;8771;48.048;7.682;2023-03-13T05:26:47;12.30;68.90
17307;DHT22;8771;48.048;7.682;2023-03-13T05:31:51;12.30;69.00
17307;DHT22;8771;48.048;7.682;2023-03-13T05:36:54;12.30;69.00
17307;DHT22;8771;48.048;7.682;2023-03-13T05:41:58;12.30;69.00
17307;DHT22;8771;48.048;7.682;2023-03-13T05:47:03;12.30;69.00
17307;DHT22;8771;48.048;7.682;2023-03-13T05:52:05;12.30;69.10
17307;DHT22;8771;48.048;7.682;2023-03-13T05:57:08;12.30;69.10
17307;DHT22;8771;48.048;7.682;2023-03-13T06:02:13;12.30;69.20
17307;DHT22;8771;48.048;7.682;2023-03-13T06:07:16;12.30;69.20
17307;DHT22;8771;48.048;7.682;2023-03-13T06:12:19;12.30;69.20
17307;DHT22;8771;48.048;7.682;2023-03-13T06:17:23;12.40;69.30
17307;DHT22;8771;48.048;7.682;2023-03-13T06:22:25;12.40;69.20
17307;DHT22;8771;48.048;7.682;2023-03-13T06:27:27;12.40;69.20
17307;DHT22;8771;48.048;7.682;2023-03-13T06:32:30;12.50;69.20
17307;DHT22;8771;48.048;7.682;2023-03-13T06:37:33;12.50;69.20
17307;DHT22;8771;48.048;7.682;2023-03-13T06:42:35;12.60;69.50
17307;DHT22;8771;48.048;7.682;2023-03-13T06:47:38;12.70;69.30
17307;DHT22;8771;48.048;7.682;2023-03-13T06:52:40;12.70;69.10
17307;DHT22;8771;48.048;7.682;2023-03-13T06:57:42;12.90;69.10
17307;DHT22;8771;48.048;7.682;2023-03-13T07:02:45;13.00;69.10
17307;DHT22;8771;48.048;7.682;2023-03-13T07:07:48;13.10;69.00
17307;DHT22;8771;48.048;7.682;2023-03-13T07:12:51;13.20;69.00
17307;DHT22;8771;48.048;7.682;2023-03-13T07:17:57;13.30;68.80
17307;DHT22;8771;48.048;7.682;2023-03-13T07:23:00;13.40;68.80
17307;DHT22;8771;48.048;7.682;2023-03-13T07:28:03;13.50;68.70
17307;DHT22;8771;48.048;7.682;2023-03-13T07:33:07;13.70;68.80
17307;DHT22;8771;48.048;7.682;2023-03-13T07:38:11;13.80;68.70
17307;DHT22;8771;48.048;7.682;2023-03-13T07:43:13;13.90;68.70
17307;DHT22;8771;48.048;7.682;2023-03-13T07:48:17;14.10;68.60
17307;DHT22;8771;48.048;7.682;2023-03-13T07:53:21;14.30;68.50
17307;DHT22;8771;48.048;7.682;2023-03-13T07:58:25;14.50;68.40
17307;DHT22;8771;48.048;7.682;2023-03-13T08:03:28;14.70;68.30
17307;DHT22;8771;48.048;7.682;2023-03-13T08:08:30;14.90;68.10
17307;DHT22;8771;48.048;7.682;2023-03-13T08:13:33;15.20;68.00
17307;DHT22;8771;48.048;7.682;2023-03-13T08:18:38;15.40;67.90
17307;DHT22;8771;48.048;7.682;2023-03-13T08:23:41;15.70;67.70
17307;DHT22;8771;48.048;7.682;2023-03-13T08:33:48;16.40;66.70
17307;DHT22;8771;48.048;7.682;2023-03-13T08:38:51;16.70;67.20
17307;DHT22;8771;48.048;7.682;2023-03-13T08:43:54;17.10;66.80
17307;DHT22;8771;48.048;7.682;2023-03-13T08:48:57;17.70;66.50
17307;DHT22;8771;48.048;7.682;2023-03-13T08:54:00;18.10;66.10
17307;DHT22;8771;48.048;7.682;2023-03-13T08:59:04;18.50;66.10
17307;DHT22;8771;48.048;7.682;2023-03-13T09:04:07;18.90;65.80
17307;DHT22;8771;48.048;7.682;2023-03-13T09:09:10;19.10;65.80
17307;DHT22;8771;48.048;7.682;2023-03-13T09:14:12;19.30;65.80
17307;DHT22;8771;48.048;7.682;2023-03-13T09:19:15;19.40;65.80
17307;DHT22;8771;48.048;7.682;2023-03-13T09:24:17;19.70;65.90
17307;DHT22;8771;48.048;7.682;2023-03-13T09:29:19;20.00;66.30
17307;DHT22;8771;48.048;7.682;2023-03-13T09:34:24;20.30;65.40
17307;DHT22;8771;48.048;7.682;2023-03-13T09:39:27;20.60;65.20
17307;DHT22;8771;48.048;7.682;2023-03-13T09:44:34;20.90;65.00
17307;DHT22;8771;48.048;7.682;2023-03-13T09:49:42;21.20;65.00
17307;DHT22;8771;48.048;7.682;2023-03-13T09:54:49;21.30;65.00
17307;DHT22;8771;48.048;7.682;2023-03-13T09:59:56;21.40;65.20
17307;DHT22;8771;48.048;7.682;2023-03-13T10:05:07;21.40;65.20
17307;DHT22;8771;48.048;7.682;2023-03-13T10:10:15;21.60;65.20
17307;DHT22;8771;48.048;7.682;2023-03-13T10:15:30;21.80;65.00
17307;DHT22;8771;48.048;7.682;2023-03-13T10:20:35;21.80;64.90
17307;DHT22;8771;48.048;7.682;2023-03-13T10:25:38;21.90;64.90
17307;DHT22;8771;48.048;7.682;2023-03-13T10:30:45;21.90;64.90
17307;DHT22;8771;48.048;7.682;2023-03-13T10:36:04;21.90;65.20
17307;DHT22;8771;48.048;7.682;2023-03-13T10:41:17;21.90;65.20
17307;DHT22;8771;48.048;7.682;2023-03-13T10:46:24;22.00;65.20
17307;DHT22;8771;48.048;7.682;2023-03-13T10:51:36;21.90;65.30
17307;DHT22;8771;48.048;7.682;2023-03-13T10:56:38;22.00;65.40
17307;DHT22;8771;48.048;7.682;2023-03-13T11:01:41;22.00;65.20
17307;DHT22;8771;48.048;7.682;2023-03-13T11:06:51;22.20;65.20
17307;DHT22;8771;48.048;7.682;2023-03-13T11:11:54;22.40;64.80
17307;DHT22;8771;48.048;7.682;2023-03-13T11:17:03;22.60;64.60
17307;DHT22;8771;48.048;7.682;2023-03-13T11:22:41;22.80;64.40
17307;DHT22;8771;48.048;7.682;2023-03-13T11:27:55;22.90;64.20
17307;DHT22;8771;48.048;7.682;2023-03-13T11:33:01;23.20;64.10
17307;DHT22;8771;48.048;7.682;2023-03-13T11:38:08;23.40;63.70
17307;DHT22;8771;48.048;7.682;2023-03-13T11:43:42;23.60;63.40
17307;DHT22;8771;48.048;7.682;2023-03-13T11:49:08;23.70;63.30
17307;DHT22;8771;48.048;7.682;2023-03-13T11:54:37;23.90;63.30
17307;DHT22;8771;48.048;7.682;2023-03-13T11:59:51;24.20;63.10
17307;DHT22;8771;48.048;7.682;2023-03-13T12:05:00;24.50;62.60
17307;DHT22;8771;48.048;7.682;2023-03-13T12:10:09;24.80;62.40
17307;DHT22;8771;48.048;7.682;2023-03-13T12:20:25;25.20;61.50
17307;DHT22;8771;48.048;7.682;2023-03-13T12:25:31;25.40;61.90
17307;DHT22;8771;48.048;7.682;2023-03-13T12:30:38;25.70;61.70
17307;DHT22;8771;48.048;7.682;2023-03-13T12:35:43;26.00;61.60
17307;DHT22;8771;48.048;7.682;2023-03-13T12:40:51;26.00;61.60
17307;DHT22;8771;48.048;7.682;2023-03-13T12:46:18;26.00;61.90
17307;DHT22;8771;48.048;7.682;2023-03-13T12:51:33;25.80;62.00
17307;DHT22;8771;48.048;7.682;2023-03-13T12:57:02;25.80;62.30
17307;DHT22;8771;48.048;7.682;2023-03-13T13:02:15;25.70;62.30
17307;DHT22;8771;48.048;7.682;2023-03-13T13:07:22;25.50;62.50
17307;DHT22;8771;48.048;7.682;2023-03-13T13:12:27;25.30;62.60
17307;DHT22;8771;48.048;7.682;2023-03-13T13:17:55;25.20;62.80
17307;DHT22;8771;48.048;7.682;2023-03-13T13:23:26;25.30;62.70
17307;DHT22;8771;48.048;7.682;2023-03-13T13:28:34;25.30;62.50
17307;DHT22;8771;48.048;7.682;2023-03-13T13:33:38;25.20;62.60
17307;DHT22;8771;48.048;7.682;2023-03-13T13:38:41;25.10;62.60
17307;DHT22;8771;48.048;7.682;2023-03-13T13:43:48;25.30;62.50
17307;DHT22;8771;48.048;7.682;2023-03-13T13:49:10;25.60;61.90
17307;DHT22;8771;48.048;7.682;2023-03-13T13:54:35;25.90;61.50
17307;DHT22;8771;48.048;7.682;2023-03-13T14:00:03;26.00;61.40
17307;DHT22;8771;48.048;7.682;2023-03-13T14:05:16;26.10;61.20
17307;DHT22;8771;48.048;7.682;2023-03-13T14:10:35;26.00;61.20
17307;DHT22;8771;48.048;7.682;2023-03-13T14:15:42;25.90;61.80
17307;DHT22;8771;48.048;7.682;2023-03-13T14:20:53;25.80;61.70
17307;DHT22;8771;48.048;7.682;2023-03-13T14:25:56;25.70;61.90
17307;DHT22;8771;48.048;7.682;2023-03-13T14:30:59;25.60;61.90
17307;DHT22;8771;48.048;7.682;2023-03-13T14:36:02;25.60;62.10
17307;DHT22;8771;48.048;7.682;2023-03-13T14:41:04;25.70;62.80
17307;DHT22;8771;48.048;7.682;2023-03-13T14:46:15;25.90;61.60
17307;DHT22;8771;48.048;7.682;2023-03-13T14:51:25;26.00;61.40
17307;DHT22;8771;48.048;7.682;2023-03-13T14:56:33;26.00;61.20
17307;DHT22;8771;48.048;7.682;2023-03-13T15:01:38;26.00;61.20
17307;DHT22;8771;48.048;7.682;2023-03-13T15:06:41;26.00;61.10
17307;DHT22;8771;48.048;7.682;2023-03-13T15:11:53;26.00;61.20
17307;DHT22;8771;48.048;7.682;2023-03-13T15:16:57;25.80;61.20
17307;DHT22;8771;48.048;7.682;2023-03-13T15:21:59;25.80;61.20
17307;DHT22;8771;48.048;7.682;2023-03-13T15:27:01;25.60;61.40
17307;DHT22;8771;48.048;7.682;2023-03-13T15:32:09;25.40;61.60
17307;DHT22;8771;48.048;7.682;2023-03-13T15:37:12;25.30;61.60
17307;DHT22;8771;48.048;7.682;2023-03-13T15:42:15;25.20;61.60
17307;DHT22;8771;48.048;7.682;2023-03-13T15:47:21;25.20;61.70
17307;DHT22;8771;48.048;7.682;2023-03-13T15:52:23;25.10;61.50
17307;DHT22;8771;48.048;7.682;2023-03-13T15:57:26;25.10;61.50
17307;DHT22;8771;48.048;7.682;2023-03-13T16:02:29;25.00;61.50
17307;DHT22;8771;48.048;7.682;2023-03-13T16:07:32;24.80;61.70
17307;DHT22;8771;48.048;7.682;2023-03-13T16:12:35;24.70;61.90
17307;DHT22;8771;48.048;7.682;2023-03-13T16:17:39;24.50;61.90
17307;DHT22;8771;48.048;7.682;2023-03-13T16:22:43;24.40;62.10
17307;DHT22;8771;48.048;7.682;2023-03-13T16:27:46;24.20;62.10
17307;DHT22;8771;48.048;7.682;2023-03-13T16:32:51;24.10;62.20
17307;DHT22;8771;48.048;7.682;2023-03-13T16:37:53;23.90;62.30
17307;DHT22;8771;48.048;7.682;2023-03-13T16:42:55;23.70;62.50
17307;DHT22;8771;48.048;7.682;2023-03-13T16:47:58;23.50;62.50
17307;DHT22;8771;48.048;7.682;2023-03-13T16:53:00;23.40;63.50
17307;DHT22;8771;48.048;7.682;2023-03-13T16:58:03;23.20;62.80
17307;DHT22;8771;48.048;7.682;2023-03-13T17:03:06;23.00;63.00
17307;DHT22;8771;48.048;7.682;2023-03-13T17:08:10;22.80;63.20
17307;DHT22;8771;48.048;7.682;2023-03-13T17:13:14;22.70;63.40
17307;DHT22;8771;48.048;7.682;2023-03-13T17:18:22;22.50;63.50
17307;DHT22;8771;48.048;7.682;2023-03-13T17:23:25;22.20;76.10
17307;DHT22;8771;48.048;7.682;2023-03-13T17:28:29;22.20;63.70
17307;DHT22;8771;48.048;7.682;2023-03-13T17:33:35;22.10;63.60
17307;DHT22;8771;48.048;7.682;2023-03-13T17:38:37;22.00;63.70
17307;DHT22;8771;48.048;7.682;2023-03-13T17:43:41;21.80;63.70
17307;DHT22;8771;48.048;7.682;2023-03-13T17:48:46;21.70;63.70
17307;DHT22;8771;48.048;7.682;2023-03-13T17:53:49;21.60;63.60
17307;DHT22;8771;48.048;7.682;2023-03-13T17:58:53;21.40;63.40
17307;DHT22;8771;48.048;7.682;2023-03-13T18:03:59;21.30;63.30
17307;DHT22;8771;48.048;7.682;2023-03-13T18:09:03;21.30;63.20
17307;DHT22;8771;48.048;7.682;2023-03-13T18:14:07;21.20;63.20
17307;DHT22;8771;48.048;7.682;2023-03-13T18:19:13;21.20;63.20
17307;DHT22;8771;48.048;7.682;2023-03-13T18:24:16;21.10;63.20
17307;DHT22;8771;48.048;7.682;2023-03-13T18:29:20;21.10;63.20
17307;DHT22;8771;48.048;7.682;2023-03-13T18:34:27;21.00;63.20
17307;DHT22;8771;48.048;7.682;2023-03-13T18:39:31;21.00;63.30
17307;DHT22;8771;48.048;7.682;2023-03-13T18:44:33;20.90;63.30
17307;DHT22;8771;48.048;7.682;2023-03-13T18:49:36;20.80;63.30
17307;DHT22;8771;48.048;7.682;2023-03-13T18:54:38;20.70;63.40
17307;DHT22;8771;48.048;7.682;2023-03-13T18:59:41;20.60;63.40
17307;DHT22;8771;48.048;7.682;2023-03-13T19:04:44;20.40;63.30
17307;DHT22;8771;48.048;7.682;2023-03-13T19:09:48;20.00;63.70
17307;DHT22;8771;48.048;7.682;2023-03-13T19:14:51;19.60;64.30
17307;DHT22;8771;48.048;7.682;2023-03-13T19:19:55;19.20;64.70
17307;DHT22;8771;48.048;7.682;2023-03-13T19:24:58;18.80;65.30
17307;DHT22;8771;48.048;7.682;2023-03-13T19:30:01;18.50;65.70
17307;DHT22;8771;48.048;7.682;2023-03-13T19:35:05;17.90;65.80
17307;DHT22;8771;48.048;7.682;2023-03-13T19:40:16;17.40;66.40
17307;DHT22;8771;48.048;7.682;2023-03-13T19:45:20;16.80;66.70
17307;DHT22;8771;48.048;7.682;2023-03-13T19:50:25;16.10;67.10
17307;DHT22;8771;48.048;7.682;2023-03-13T19:55:28;15.70;67.50
17307;DHT22;8771;48.048;7.682;2023-03-13T20:00:32;15.40;67.70
17307;DHT22;8771;48.048;7.682;2023-03-13T20:05:36;15.30;67.80
17307;DHT22;8771;48.048;7.682;2023-03-13T20:10:38;14.90;67.90
17307;DHT22;8771;48.048;7.682;2023-03-13T20:15:40;14.70;68.00
17307;DHT22;8771;48.048;7.682;2023-03-13T20:20:44;14.60;68.10
17307;DHT22;8771;48.048;7.682;2023-03-13T20:25:46;14.50;68.10
17307;DHT22;8771;48.048;7.682;2023-03-13T20:30:48;14.50;68.00
17307;DHT22;8771;48.048;7.682;2023-03-13T20:35:55;14.60;67.90
17307;DHT22;8771;48.048;7.682;2023-03-13T20:40:58;14.50;67.70
17307;DHT22;8771;48.048;7.682;2023-03-13T20:46:00;14.40;67.80
17307;DHT22;8771;48.048;7.682;2023-03-13T20:51:04;14.30;68.00
17307;DHT22;8771;48.048;7.682;2023-03-13T20:56:07;14.10;68.10
17307;DHT22;8771;48.048;7.682;2023-03-13T21:01:09;14.00;68.40
17307;DHT22;8771;48.048;7.682;2023-03-13T21:06:15;13.70;68.50
17307;DHT22;8771;48.048;7.682;2023-03-13T21:11:20;13.60;68.70
17307;DHT22;8771;48.048;7.682;2023-03-13T21:16:23;13.50;68.70
17307;DHT22;8771;48.048;7.682;2023-03-13T21:21:27;13.40;68.90
17307;DHT22;8771;48.048;7.682;2023-03-13T21:26:30;13.30;69.00
17307;DHT22;8771;48.048;7.682;2023-03-13T21:31:33;13.20;69.00
17307;DHT22;8771;48.048;7.682;2023-03-13T21:36:36;13.30;68.80
17307;DHT22;8771;48.048;7.682;2023-03-13T21:41:38;13.20;68.90
17307;DHT22;8771;48.048;7.682;2023-03-13T21:46:41;13.20;68.80
17307;DHT22;8771;48.048;7.682;2023-03-13T21:51:45;13.20;68.80
17307;DHT22;8771;48.048;7.682;2023-03-13T21:56:48;13.10;68.30
17307;DHT22;8771;48.048;7.682;2023-03-13T22:01:51;13.20;68.90
17307;DHT22;8771;48.048;7.682;2023-03-13T22:06:54;13.10;68.70
17307;DHT22;8771;48.048;7.682;2023-03-13T22:11:56;13.00;69.00
17307;DHT22;8771;48.048;7.682;2023-03-13T22:16:58;13.00;69.00
17307;DHT22;8771;48.048;7.682;2023-03-13T22:22:04;13.20;68.90
17307;DHT22;8771;48.048;7.682;2023-03-13T22:27:06;13.30;68.60
17307;DHT22;8771;48.048;7.682;2023-03-13T22:32:09;13.40;68.40
17307;DHT22;8771;48.048;7.682;2023-03-13T22:37:13;13.50;68.30
17307;DHT22;8771;48.048;7.682;2023-03-13T22:42:15;13.60;68.40
17307;DHT22;8771;48.048;7.682;2023-03-13T22:47:17;13.60;68.40
17307;DHT22;8771;48.048;7.682;2023-03-13T22:52:20;13.50;68.50
17307;DHT22;8771;48.048;7.682;2023-03-13T22:57:28;13.50;68.50
17307;DHT22;8771;48.048;7.682;2023-03-13T23:02:30;13.50;68.50
17307;DHT22;8771;48.048;7.682;2023-03-13T23:07:36;13.50;68.50
17307;DHT22;8771;48.048;7.682;2023-03-13T23:12:41;13.40;68.50
17307;DHT22;8771;48.048;7.682;2023-03-13T23:17:44;13.40;68.60
17307;DHT22;8771;48.048;7.682;2023-03-13T23:22:49;13.40;68.60
17307;DHT22;8771;48.048;7.682;2023-03-13T23:27:53;13.40;68.70
17307;DHT22;8771;48.048;7.682;2023-03-13T23:32:57;13.40;68.70
17307;DHT22;8771;48.048;7.682;2023-03-13T23:38:01;13.40;68.70
17307;DHT22;8771;48.048;7.682;2023-03-13T23:43:04;13.40;68.70
17307;DHT22;8771;48.048;7.682;2023-03-13T23:48:07;13.40;68.70
17307;DHT22;8771;48.048;7.682;2023-03-13T23:53:11;13.40;68.70
17307;DHT22;8771;48.048;7.682;2023-03-13T23:58:14;13.40;68.70
